Time;durP1;ratioP1;P1;durP2;ratioP2;P2;SDS_P1;SDS_P2;PMS_P1;PMS_P2;Temp;Humidity;BMP_temperature;BMP_pressure;BME280_temperature;BME280_humidity;BME280_pressure;Samples;Min_cycle;Max_cycle;Signal;HPM_P1;HPM_P2
2023/02/17 00:02:17;;;;;;;4.93;2.97;;;11.60;99.90;;;;;;5044288;28;20044;-80
2023/02/17 00:04:44;;;;;;;12.15;3.47;;;11.60;99.90;;;;;;5048647;28;20405;-79
2023/02/17 00:07:11;;;;;;;6.53;3.60;;;11.60;99.90;;;;;;5054583;28;20041;-79
2023/02/17 00:09:38;;;;;;;5.75;3.90;;;11.60;99.90;;;;;;5038488;28;20045;-79
2023/02/17 00:12:04;;;;;;;8.13;3.47;;;11.60;99.90;;;;;;5039383;28;20052;-79
2023/02/17 00:14:31;;;;;;;8.68;4.25;;;11.60;99.90;;;;;;5044567;28;20045;-80
2023/02/17 00:16:58;;;;;;;5.78;3.58;;;11.60;99.90;;;;;;5046323;28;20053;-79
2023/02/17 00:19:24;;;;;;;6.15;3.58;;;11.60;99.90;;;;;;5047666;28;20055;-79
2023/02/17 00:21:57;;;;;;;6.47;3.65;;;11.60;99.90;;;;;;5046883;28;20052;-79
2023/02/17 00:24:25;;;;;;;9.65;4.07;;;11.50;99.90;;;;;;5040466;28;20048;-80
2023/02/17 00:26:52;;;;;;;6.28;3.42;;;11.50;99.90;;;;;;5039776;28;20077;-79
2023/02/17 00:29:19;;;;;;;6.57;4.07;;;11.50;99.90;;;;;;5045191;28;20055;-79
2023/02/17 00:31:46;;;;;;;11.27;4.10;;;11.50;99.90;;;;;;5048139;28;20049;-79
2023/02/17 00:34:13;;;;;;;10.30;4.68;;;11.50;99.90;;;;;;5047623;28;20049;-79
2023/02/17 00:36:39;;;;;;;7.60;3.85;;;11.50;99.90;;;;;;5047827;28;20132;-79
2023/02/17 00:39:06;;;;;;;6.55;3.72;;;11.50;99.90;;;;;;5040245;28;20049;-79
2023/02/17 00:41:34;;;;;;;12.20;4.10;;;11.50;99.90;;;;;;5041906;28;20453;-79
2023/02/17 00:44:00;;;;;;;8.05;3.90;;;11.50;99.90;;;;;;5044530;28;20047;-79
2023/02/17 00:46:27;;;;;;;8.07;3.97;;;11.50;99.90;;;;;;5047399;28;20041;-79
2023/02/17 00:48:54;;;;;;;9.45;3.30;;;11.50;99.90;;;;;;5050993;28;20056;-79
2023/02/17 00:51:21;;;;;;;11.60;3.78;;;11.50;99.90;;;;;;5050746;28;20045;-79
2023/02/17 00:53:48;;;;;;;8.18;3.53;;;11.50;99.90;;;;;;5040066;28;20132;-80
2023/02/17 00:56:15;;;;;;;8.77;3.75;;;11.50;99.90;;;;;;5044238;28;20056;-79
2023/02/17 00:58:42;;;;;;;10.48;3.75;;;11.50;99.90;;;;;;5047021;28;20132;-79
2023/02/17 01:01:10;;;;;;;7.82;3.60;;;11.40;99.90;;;;;;5048027;28;20049;-79
2023/02/17 01:03:37;;;;;;;7.72;3.85;;;11.40;99.90;;;;;;5048700;28;20076;-79
2023/02/17 01:06:07;;;;;;;5.60;3.17;;;11.40;99.90;;;;;;5036940;28;20041;-79
2023/02/17 01:08:34;;;;;;;7.53;3.60;;;11.40;99.90;;;;;;5030276;28;20101;-79
2023/02/17 01:11:01;;;;;;;7.32;3.65;;;11.40;99.90;;;;;;5040238;28;20408;-79
2023/02/17 01:13:27;;;;;;;6.97;4.07;;;11.40;99.90;;;;;;5044410;28;20045;-79
2023/02/17 01:15:54;;;;;;;7.70;3.55;;;11.40;99.90;;;;;;5049033;28;20235;-81
2023/02/17 01:18:23;;;;;;;6.47;3.55;;;11.40;99.90;;;;;;5053272;28;20098;-78
2023/02/17 01:20:50;;;;;;;5.85;3.65;;;11.40;99.90;;;;;;5038626;28;20045;-79
2023/02/17 01:23:17;;;;;;;8.70;4.38;;;11.40;99.90;;;;;;5039709;28;20053;-79
2023/02/17 01:25:46;;;;;;;7.70;4.05;;;11.30;99.90;;;;;;5044180;28;20047;-79
2023/02/17 01:28:19;;;;;;;5.57;3.60;;;11.30;99.90;;;;;;5043598;28;20049;-79
2023/02/17 01:30:46;;;;;;;8.68;4.53;;;11.30;99.90;;;;;;5046743;28;20420;-79
2023/02/17 01:33:13;;;;;;;8.18;5.03;;;11.30;99.90;;;;;;5047764;28;20049;-80
2023/02/17 01:35:40;;;;;;;6.88;4.85;;;11.30;99.90;;;;;;5038264;28;20050;-81
2023/02/17 01:38:07;;;;;;;7.22;3.28;;;11.30;99.90;;;;;;5041213;28;20482;-79
2023/02/17 01:40:33;;;;;;;7.82;4.70;;;11.30;99.90;;;;;;5045051;28;20049;-79
2023/02/17 01:43:00;;;;;;;7.22;4.28;;;11.30;99.90;;;;;;5048549;28;20053;-80
2023/02/17 01:45:44;;;;;;;10.35;4.28;;;11.30;99.90;;;;;;5048262;28;20051;-80
2023/02/17 01:48:15;;;;;;;6.57;4.30;;;11.30;99.90;;;;;;5042071;28;20053;-80
2023/02/17 01:50:51;;;;;;;9.57;4.57;;;11.40;99.90;;;;;;5040420;28;20072;-80
2023/02/17 01:53:23;;;;;;;7.38;3.95;;;11.40;99.90;;;;;;5044272;28;20050;-79
2023/02/17 01:55:51;;;;;;;9.38;4.43;;;11.30;99.90;;;;;;5042556;28;20137;-78
2023/02/17 01:58:22;;;;;;;9.25;4.20;;;11.40;99.90;;;;;;5049105;28;20535;-79
2023/02/17 02:00:50;;;;;;;;;;;11.30;99.90;;;;;;5043520;28;20140;-79
2023/02/17 02:03:18;;;;;;;9.70;4.05;;;11.30;99.90;;;;;;5035002;28;19943;-78
2023/02/17 02:05:44;;;;;;;10.57;4.50;;;11.30;99.90;;;;;;5039845;28;20128;-79
2023/02/17 02:08:12;;;;;;;10.57;4.28;;;11.30;99.90;;;;;;5042084;28;20409;-79
2023/02/17 02:10:39;;;;;;;9.07;4.00;;;11.30;99.90;;;;;;5047039;28;20575;-79
2023/02/17 02:13:07;;;;;;;8.60;4.53;;;11.30;99.90;;;;;;5040232;28;20045;-80
2023/02/17 02:16:02;;;;;;;9.60;4.28;;;11.30;99.90;;;;;;5047603;28;20044;-79
2023/02/17 02:18:39;;;;;;;10.23;4.50;;;11.20;99.90;;;;;;5033041;28;20075;-78
2023/02/17 02:21:39;;;;;;;8.60;4.05;;;11.30;99.90;;;;;;5038741;28;20105;-80
2023/02/17 02:24:28;;;;;;;9.60;4.05;;;11.20;99.90;;;;;;5044673;28;20049;-79
2023/02/17 02:27:12;;;;;;;7.47;4.37;;;11.20;99.90;;;;;;5046326;28;20472;-81
2023/02/17 02:30:05;;;;;;;7.43;4.10;;;11.20;99.90;;;;;;5044509;28;20045;-79
2023/02/17 02:32:46;;;;;;;9.60;4.45;;;11.20;99.90;;;;;;5035930;28;20041;-79
2023/02/17 02:35:21;;;;;;;8.82;4.90;;;11.30;99.90;;;;;;5040214;28;20049;-79
2023/02/17 02:38:09;;;;;;;9.25;4.35;;;11.20;99.90;;;;;;5040481;28;20119;-80
2023/02/17 02:40:40;;;;;;;10.32;4.47;;;11.30;99.90;;;;;;5043739;28;20128;-78
2023/02/17 02:43:07;;;;;;;7.88;4.45;;;11.30;99.90;;;;;;5046801;28;20046;-79
2023/02/17 02:45:34;;;;;;;11.57;4.57;;;11.30;99.90;;;;;;5035222;28;20493;-79
2023/02/17 02:48:01;;;;;;;11.00;4.63;;;11.30;99.90;;;;;;5037041;28;20038;-79
2023/02/17 02:50:58;;;;;;;7.28;4.28;;;11.30;99.90;;;;;;5043572;28;20091;-80
2023/02/17 02:53:47;;;;;;;9.00;4.57;;;11.30;99.90;;;;;;5047156;28;20140;-79
2023/02/17 02:56:29;;;;;;;10.30;4.13;;;11.30;99.90;;;;;;5041859;28;20516;-79
2023/02/17 02:59:19;;;;;;;9.38;4.00;;;11.30;99.90;;;;;;5038980;28;20125;-79
2023/02/17 03:02:15;;;;;;;6.35;3.35;;;11.30;99.90;;;;;;5038949;28;20041;-79
2023/02/17 03:04:51;;;;;;;6.78;3.80;;;11.30;99.90;;;;;;5040135;28;20093;-79
2023/02/17 03:07:27;;;;;;;5.68;4.10;;;11.30;99.90;;;;;;5042556;28;20053;-79
2023/02/17 03:09:56;;;;;;;6.50;3.53;;;11.30;99.90;;;;;;5047105;28;20056;-79
2023/02/17 03:12:24;;;;;;;10.60;5.00;;;11.30;99.90;;;;;;5048553;28;20076;-79
2023/02/17 03:14:57;;;;;;;13.95;4.05;;;11.30;99.90;;;;;;5036106;28;20056;-80
2023/02/17 03:17:23;;;;;;;6.95;3.80;;;11.30;99.90;;;;;;5040076;28;20113;-81
2023/02/17 03:19:50;;;;;;;13.25;4.13;;;11.30;99.90;;;;;;5047681;28;20950;-78
2023/02/17 03:22:27;;;;;;;10.18;3.83;;;11.30;99.90;;;;;;5047897;28;20045;-79
2023/02/17 03:24:54;;;;;;;7.53;3.70;;;11.30;99.90;;;;;;5042734;28;20042;-79
2023/02/17 03:27:21;;;;;;;11.52;4.07;;;11.30;99.90;;;;;;5034313;28;20038;-79
2023/02/17 03:29:47;;;;;;;7.65;3.88;;;11.30;99.90;;;;;;5042264;28;20045;-79
2023/02/17 03:32:14;;;;;;;9.63;4.20;;;11.30;99.90;;;;;;5043644;28;20079;-79
2023/02/17 03:34:41;;;;;;;6.63;3.70;;;11.30;99.90;;;;;;5048948;28;20041;-79
2023/02/17 03:37:07;;;;;;;10.73;3.90;;;11.30;99.90;;;;;;5053917;28;20639;-79
2023/02/17 03:39:34;;;;;;;7.05;4.25;;;11.30;99.90;;;;;;5054196;28;20053;-79
2023/02/17 03:42:01;;;;;;;7.57;4.43;;;11.30;99.90;;;;;;5039728;28;20099;-79
2023/02/17 03:44:27;;;;;;;9.68;3.83;;;11.30;99.90;;;;;;5041895;28;20049;-79
2023/02/17 03:46:54;;;;;;;8.02;4.45;;;11.30;99.90;;;;;;5044042;28;20069;-79
2023/02/17 03:49:21;;;;;;;6.57;3.72;;;11.20;99.90;;;;;;5045861;28;20051;-79
2023/02/17 03:51:47;;;;;;;9.20;4.68;;;11.30;99.90;;;;;;5049153;28;20108;-79
2023/02/17 03:54:14;;;;;;;8.77;4.55;;;11.20;99.90;;;;;;5046367;28;20046;-79
2023/02/17 03:56:40;;;;;;;10.95;4.63;;;11.20;99.90;;;;;;5037194;28;20045;-79
2023/02/17 03:59:07;;;;;;;8.55;5.18;;;11.20;99.90;;;;;;5041313;28;20068;-79
2023/02/17 04:01:34;;;;;;;11.02;4.60;;;11.20;99.90;;;;;;5045626;28;20050;-79
2023/02/17 04:04:00;;;;;;;9.48;4.90;;;11.20;99.90;;;;;;5050217;28;20516;-79
2023/02/17 04:06:27;;;;;;;10.05;4.70;;;11.30;99.90;;;;;;5049158;28;20037;-79
2023/02/17 04:08:54;;;;;;;7.72;4.75;;;11.30;99.90;;;;;;5044863;28;20083;-79
2023/02/17 04:11:20;;;;;;;7.75;4.20;;;11.30;99.90;;;;;;5039579;28;20056;-80
2023/02/17 04:13:47;;;;;;;11.05;4.32;;;11.30;99.90;;;;;;5024200;28;20133;-79
2023/02/17 04:16:14;;;;;;;7.25;4.30;;;11.20;99.90;;;;;;5044923;28;20052;-80
2023/02/17 04:18:40;;;;;;;11.13;5.07;;;11.20;99.90;;;;;;5048857;28;20049;-79
2023/02/17 04:21:07;;;;;;;11.60;4.63;;;11.20;99.90;;;;;;5052817;28;20051;-80
2023/02/17 04:23:37;;;;;;;9.27;4.10;;;11.30;99.90;;;;;;5040871;28;20519;-80
2023/02/17 04:26:06;;;;;;;8.35;4.60;;;11.30;99.90;;;;;;5042776;28;20042;-79
2023/02/17 04:28:36;;;;;;;8.15;4.68;;;11.30;99.90;;;;;;5044371;28;20077;-79
2023/02/17 04:31:02;;;;;;;8.63;4.70;;;11.30;99.90;;;;;;5044303;28;20072;-79
2023/02/17 04:33:29;;;;;;;8.98;4.40;;;11.30;99.90;;;;;;5047285;28;20072;-79
2023/02/17 04:35:58;;;;;;;9.57;4.03;;;11.30;99.90;;;;;;5050531;28;20045;-80
2023/02/17 04:38:26;;;;;;;8.05;4.32;;;11.30;99.90;;;;;;5038009;28;20045;-79
2023/02/17 04:40:55;;;;;;;6.78;4.30;;;11.30;99.90;;;;;;5039838;28;20076;-80
2023/02/17 04:44:14;;;;;;;8.82;4.53;;;11.30;99.90;;;;;;5044738;28;20044;-80
2023/02/17 04:46:41;;;;;;;11.37;4.60;;;11.30;99.90;;;;;;5035659;22;20604;-77
2023/02/17 04:49:08;;;;;;;7.47;4.35;;;11.30;99.90;;;;;;5007170;28;20046;-78
2023/02/17 04:51:34;;;;;;;12.32;5.20;;;11.30;99.90;;;;;;5003220;28;20054;-78
2023/02/17 04:54:01;;;;;;;8.75;4.30;;;11.30;99.90;;;;;;5006199;28;20056;-78
2023/02/17 04:56:28;;;;;;;8.98;3.92;;;11.30;99.90;;;;;;5005757;28;20053;-78
2023/02/17 04:58:54;;;;;;;8.30;4.13;;;11.30;99.90;;;;;;4987576;28;20050;-78
2023/02/17 05:01:21;;;;;;;12.57;4.13;;;11.30;99.90;;;;;;5006708;28;20052;-78
2023/02/17 05:03:48;;;;;;;7.72;4.32;;;11.30;99.90;;;;;;5004258;28;20050;-79
2023/02/17 05:06:14;;;;;;;9.52;4.40;;;11.30;99.90;;;;;;5007373;28;20049;-78
2023/02/17 05:08:41;;;;;;;10.43;4.55;;;11.30;99.90;;;;;;5010064;28;20050;-78
2023/02/17 05:11:08;;;;;;;8.35;3.92;;;11.30;99.90;;;;;;5011062;28;20058;-78
2023/02/17 05:13:34;;;;;;;9.80;4.78;;;11.30;99.90;;;;;;5011239;28;20052;-78
2023/02/17 05:16:01;;;;;;;8.40;5.07;;;11.20;99.90;;;;;;5011106;28;20054;-78
2023/02/17 05:18:28;;;;;;;8.90;4.50;;;11.30;99.90;;;;;;5009577;28;20045;-78
2023/02/17 05:20:54;;;;;;;9.23;4.55;;;11.20;99.90;;;;;;5003649;28;20051;-78
2023/02/17 05:23:21;;;;;;;9.00;4.82;;;11.30;99.90;;;;;;5005416;28;20057;-78
2023/02/17 05:25:48;;;;;;;11.00;5.55;;;11.30;99.90;;;;;;5005081;28;20042;-78
2023/02/17 05:28:14;;;;;;;8.30;4.50;;;11.20;99.90;;;;;;4986590;28;20569;-78
2023/02/17 05:30:41;;;;;;;7.30;4.25;;;11.20;99.90;;;;;;4988577;28;20060;-77
2023/02/17 05:33:08;;;;;;;8.32;4.63;;;11.20;99.90;;;;;;4985605;28;20394;-78
2023/02/17 05:35:35;;;;;;;13.45;5.47;;;11.20;99.90;;;;;;5005740;28;20046;-78
2023/02/17 05:38:02;;;;;;;11.57;4.32;;;11.20;99.90;;;;;;4987171;28;20050;-77
2023/02/17 05:40:28;;;;;;;12.07;5.15;;;11.20;99.90;;;;;;5004228;28;20052;-78
2023/02/17 05:42:55;;;;;;;10.98;5.00;;;11.10;99.90;;;;;;4988126;28;20045;-77
2023/02/17 05:45:22;;;;;;;9.95;5.15;;;11.10;99.90;;;;;;5003203;28;20101;-78
2023/02/17 05:47:48;;;;;;;9.95;4.97;;;11.10;99.90;;;;;;5003510;28;20130;-78
2023/02/17 05:50:15;;;;;;;11.55;5.10;;;11.10;99.90;;;;;;5005892;28;20498;-78
2023/02/17 05:52:42;;;;;;;13.65;4.88;;;11.00;99.90;;;;;;5004128;28;20137;-78
2023/02/17 05:55:08;;;;;;;9.98;5.53;;;11.00;99.90;;;;;;5003991;28;20049;-78
2023/02/17 05:57:35;;;;;;;14.90;5.82;;;11.10;99.90;;;;;;5005126;28;20053;-78
2023/02/17 06:00:03;;;;;;;9.65;4.95;;;11.00;99.90;;;;;;4985500;28;20050;-78
2023/02/17 06:02:30;;;;;;;8.50;4.50;;;11.00;99.90;;;;;;5002969;28;20057;-78
2023/02/17 06:04:56;;;;;;;9.05;5.47;;;11.00;99.90;;;;;;4987591;28;20046;-78
2023/02/17 06:07:23;;;;;;;9.60;5.70;;;11.00;99.90;;;;;;4986664;28;20089;-78
2023/02/17 06:09:50;;;;;;;11.07;5.18;;;10.90;99.90;;;;;;5003399;28;20050;-78
2023/02/17 06:12:16;;;;;;;11.80;6.00;;;10.90;99.90;;;;;;5007522;28;20527;-77
2023/02/17 06:14:43;;;;;;;10.48;6.25;;;10.90;99.90;;;;;;5003946;28;20054;-78
2023/02/17 06:17:10;;;;;;;9.50;5.50;;;10.80;99.90;;;;;;5005270;28;20056;-78
2023/02/17 06:19:36;;;;;;;11.55;6.38;;;10.80;99.90;;;;;;5002451;28;20057;-77
2023/02/17 06:22:03;;;;;;;12.05;6.00;;;10.80;99.90;;;;;;4985489;28;20096;-78
2023/02/17 06:24:30;;;;;;;12.65;6.53;;;10.80;99.90;;;;;;5004062;28;20057;-77
2023/02/17 06:26:56;;;;;;;12.43;6.60;;;10.80;99.90;;;;;;4983998;28;20043;-78
2023/02/17 06:29:23;;;;;;;11.10;6.93;;;10.80;99.90;;;;;;4987887;28;20463;-78
2023/02/17 06:31:50;;;;;;;12.45;6.32;;;10.80;99.90;;;;;;5004058;28;20054;-78
2023/02/17 06:34:16;;;;;;;11.48;6.63;;;10.80;99.90;;;;;;5004295;28;20064;-78
2023/02/17 06:36:43;;;;;;;16.65;8.05;;;10.80;99.90;;;;;;5003519;28;20054;-78
2023/02/17 06:39:10;;;;;;;11.85;6.10;;;10.80;99.90;;;;;;5003737;28;20058;-78
2023/02/17 06:41:37;;;;;;;10.98;5.53;;;10.80;99.90;;;;;;5004826;28;20061;-78
2023/02/17 06:44:03;;;;;;;8.45;5.05;;;10.70;99.90;;;;;;4984535;28;20514;-78
2023/02/17 06:46:30;;;;;;;9.82;4.38;;;10.70;99.90;;;;;;5004585;28;20128;-78
2023/02/17 06:48:58;;;;;;;8.00;5.25;;;10.70;99.90;;;;;;5002889;28;20130;-77
2023/02/17 06:51:26;;;;;;;9.18;5.00;;;10.70;99.90;;;;;;5003732;28;20054;-78
2023/02/17 06:53:53;;;;;;;8.50;5.00;;;10.70;99.90;;;;;;5007835;28;20050;-78
2023/02/17 06:56:19;;;;;;;11.30;5.80;;;10.70;99.90;;;;;;5006423;28;20050;-78
2023/02/17 06:58:47;;;;;;;8.63;4.55;;;10.70;99.90;;;;;;5006244;28;20105;-78
2023/02/17 07:01:20;;;;;;;12.52;5.10;;;10.80;99.90;;;;;;5009043;28;20080;-78
2023/02/17 07:03:47;;;;;;;9.77;4.47;;;10.70;99.90;;;;;;4990843;28;20061;-78
2023/02/17 07:06:13;;;;;;;8.55;4.63;;;10.80;99.90;;;;;;5007967;28;20071;-77
2023/02/17 07:08:40;;;;;;;16.48;5.85;;;10.80;99.90;;;;;;5011689;28;20078;-78
2023/02/17 07:11:09;;;;;;;7.47;4.57;;;10.80;99.90;;;;;;4992192;28;20052;-78
2023/02/17 07:13:36;;;;;;;6.60;4.60;;;10.90;99.90;;;;;;5005789;28;20046;-78
2023/02/17 07:16:03;;;;;;;11.50;4.97;;;10.90;99.90;;;;;;4995496;28;20497;-78
2023/02/17 07:18:31;;;;;;;13.57;5.95;;;10.90;99.90;;;;;;5005968;28;20085;-78
2023/02/17 07:20:58;;;;;;;12.20;5.55;;;10.90;99.90;;;;;;5008846;28;20057;-79
2023/02/17 07:23:25;;;;;;;8.15;5.25;;;10.90;99.90;;;;;;4989037;28;20143;-78
2023/02/17 07:25:51;;;;;;;11.23;4.82;;;11.00;99.90;;;;;;5008060;28;20049;-78
2023/02/17 07:28:18;;;;;;;11.93;5.93;;;11.00;99.90;;;;;;5007648;28;20145;-78
2023/02/17 07:30:45;;;;;;;12.13;5.03;;;11.00;99.90;;;;;;5009053;28;20042;-78
2023/02/17 07:33:11;;;;;;;16.30;6.38;;;11.00;99.90;;;;;;5013581;28;20058;-78
2023/02/17 07:35:45;;;;;;;10.50;5.47;;;11.00;99.90;;;;;;5004941;28;20047;-78
2023/02/17 07:38:12;;;;;;;15.23;5.55;;;11.00;99.90;;;;;;5006814;28;20483;-78
2023/02/17 07:40:38;;;;;;;9.20;5.32;;;11.00;99.90;;;;;;4990201;28;20082;-78
2023/02/17 07:43:05;;;;;;;9.50;5.95;;;11.00;99.90;;;;;;4988237;28;20050;-78
2023/02/17 07:45:32;;;;;;;11.80;6.50;;;11.00;99.90;;;;;;5007708;28;20046;-78
2023/02/17 07:47:59;;;;;;;14.52;6.10;;;11.00;99.90;;;;;;5005516;28;20047;-78
2023/02/17 07:50:25;;;;;;;10.70;5.97;;;11.00;99.90;;;;;;5007134;28;20109;-78
2023/02/17 07:52:52;;;;;;;12.50;5.82;;;11.00;99.90;;;;;;5008014;28;20049;-78
2023/02/17 07:55:19;;;;;;;9.85;5.90;;;11.00;99.90;;;;;;4997011;28;20064;-78
2023/02/17 07:57:45;;;;;;;14.88;5.88;;;11.00;99.90;;;;;;5014498;28;20054;-78
2023/02/17 08:00:13;;;;;;;11.50;5.50;;;11.00;99.90;;;;;;5015537;28;20113;-78
2023/02/17 08:02:40;;;;;;;9.30;5.63;;;11.00;99.90;;;;;;5019578;28;20421;-78
2023/02/17 08:05:06;;;;;;;12.98;5.95;;;11.00;99.90;;;;;;5023610;28;20043;-78
2023/02/17 08:07:33;;;;;;;14.52;6.53;;;11.00;99.90;;;;;;5000957;28;20598;-78
2023/02/17 08:15:33;;;;;;;12.90;5.88;;;11.00;99.90;;;;;;5006543;28;20050;-77
2023/02/17 08:18:00;;;;;;;9.18;5.53;;;11.00;99.90;;;;;;5008068;28;20108;-78
2023/02/17 08:20:27;;;;;;;12.45;5.47;;;11.00;99.90;;;;;;4996862;28;20109;-78
2023/02/17 08:22:53;;;;;;;12.57;5.60;;;11.00;99.90;;;;;;5015972;28;20050;-78
2023/02/17 08:25:20;;;;;;;13.45;6.30;;;11.00;99.90;;;;;;5007188;28;20072;-78
2023/02/17 08:27:47;;;;;;;13.30;6.00;;;11.00;99.90;;;;;;5003765;28;20157;-78
2023/02/17 08:30:14;;;;;;;10.32;6.13;;;11.00;99.90;;;;;;5017458;28;20045;-78
2023/02/17 08:32:40;;;;;;;10.85;5.47;;;11.00;99.90;;;;;;5019646;28;20069;-78
2023/02/17 08:35:07;;;;;;;9.45;5.38;;;11.00;99.90;;;;;;5019305;28;20042;-77
2023/02/17 08:37:34;;;;;;;11.35;6.45;;;11.00;99.90;;;;;;5028073;28;20057;-78
2023/02/17 08:40:01;;;;;;;14.63;5.72;;;11.00;99.90;;;;;;5019836;28;20053;-78
2023/02/17 08:42:30;;;;;;;12.10;5.90;;;11.00;99.90;;;;;;5010160;28;20050;-78
2023/02/17 08:44:57;;;;;;;10.82;6.57;;;10.90;99.90;;;;;;5003951;28;20046;-77
2023/02/17 08:47:23;;;;;;;16.83;6.63;;;11.00;99.90;;;;;;5010647;28;20069;-76
2023/02/17 08:49:50;;;;;;;13.82;6.05;;;10.90;99.90;;;;;;5011681;28;20491;-76
2023/02/17 08:52:17;;;;;;;11.82;6.43;;;10.90;99.90;;;;;;5016808;28;20057;-77
2023/02/17 08:54:43;;;;;;;13.95;6.10;;;10.90;99.90;;;;;;5010409;28;20053;-77
2023/02/17 08:57:10;;;;;;;13.95;6.07;;;10.90;99.90;;;;;;5003282;28;20056;-77
2023/02/17 08:59:37;;;;;;;13.88;6.13;;;10.90;99.90;;;;;;5005151;28;20500;-77
2023/02/17 09:02:04;;;;;;;8.82;5.90;;;10.90;99.90;;;;;;5007576;28;20488;-76
2023/02/17 09:04:30;;;;;;;12.00;7.05;;;10.90;99.90;;;;;;5007905;28;20053;-79
2023/02/17 09:06:57;;;;;;;10.27;6.22;;;10.90;99.90;;;;;;5015718;28;20394;-76
2023/02/17 09:09:28;;;;;;;14.88;6.00;;;10.90;99.90;;;;;;5008905;28;20421;-76
2023/02/17 09:11:56;;;;;;;15.57;6.40;;;10.90;99.90;;;;;;5009239;28;20132;-76
2023/02/17 09:14:24;;;;;;;14.55;6.30;;;10.80;99.90;;;;;;5004085;28;20061;-76
2023/02/17 09:16:51;;;;;;;9.35;6.35;;;10.90;99.90;;;;;;5005129;28;20052;-77
2023/02/17 09:19:18;;;;;;;10.68;5.85;;;10.90;99.90;;;;;;4996338;28;20080;-77
2023/02/17 09:21:45;;;;;;;14.90;6.47;;;10.90;99.90;;;;;;5006265;28;20068;-77
2023/02/17 09:24:12;;;;;;;13.13;5.78;;;10.90;99.90;;;;;;5003307;28;20145;-77
2023/02/17 09:26:39;;;;;;;12.65;6.13;;;10.90;99.90;;;;;;5012705;28;20149;-77
2023/02/17 09:29:06;;;;;;;12.43;6.07;;;10.90;99.90;;;;;;5007402;28;20045;-76
2023/02/17 09:31:34;;;;;;;13.40;6.75;;;11.00;99.90;;;;;;5009465;28;20052;-76
2023/02/17 09:34:01;;;;;;;14.82;5.30;;;11.00;99.90;;;;;;4995832;28;20100;-78
2023/02/17 09:36:31;;;;;;;13.13;5.90;;;11.00;99.90;;;;;;4990672;28;20069;-77
2023/02/17 09:38:58;;;;;;;9.40;5.68;;;11.00;99.90;;;;;;4997119;28;20053;-77
2023/02/17 09:41:40;;;;;;;10.50;5.40;;;11.00;99.90;;;;;;5013361;28;20045;-77
2023/02/17 09:44:15;;;;;;;10.32;5.75;;;11.00;99.90;;;;;;5001766;28;20050;-76
2023/02/17 09:47:00;;;;;;;12.45;6.68;;;11.00;99.90;;;;;;5003130;28;20057;-76
2023/02/17 09:49:50;;;;;;;10.55;5.63;;;11.00;99.90;;;;;;5005058;28;20049;-77
2023/02/17 09:52:26;;;;;;;8.85;5.20;;;11.10;99.90;;;;;;5000535;28;20084;-77
2023/02/17 09:55:02;;;;;;;12.27;5.70;;;11.10;99.90;;;;;;5004734;28;20141;-76
2023/02/17 09:57:48;;;;;;;9.52;5.10;;;11.10;99.90;;;;;;4988368;28;20046;-76
2023/02/17 10:00:31;;;;;;;11.82;5.25;;;11.10;99.90;;;;;;4996653;28;20520;-76
2023/02/17 10:03:13;;;;;;;14.25;5.45;;;11.20;99.90;;;;;;5000173;28;20046;-75
2023/02/17 10:06:08;;;;;;;10.15;5.80;;;11.20;99.90;;;;;;5002594;28;20045;-76
2023/02/17 10:08:52;;;;;;;9.90;5.90;;;11.20;99.90;;;;;;5002809;28;20472;-77
2023/02/17 10:11:38;;;;;;;14.18;5.95;;;11.30;99.90;;;;;;4998059;28;20552;-74
2023/02/17 10:14:29;;;;;;;11.85;6.22;;;11.30;99.90;;;;;;5005710;28;20053;-76
2023/02/17 10:17:05;;;;;;;10.85;5.57;;;11.30;99.90;;;;;;5000639;28;20042;-76
2023/02/17 10:19:40;;;;;;;12.52;5.50;;;11.40;99.90;;;;;;4999828;28;20042;-76
2023/02/17 10:22:14;;;;;;;9.88;5.75;;;11.40;99.90;;;;;;5004541;28;20077;-76
2023/02/17 10:24:41;;;;;;;14.27;6.43;;;11.50;99.90;;;;;;5001640;28;20042;-76
2023/02/17 10:27:21;;;;;;;14.77;7.03;;;11.50;99.90;;;;;;4999855;28;20180;-77
2023/02/17 10:30:01;;;;;;;14.68;6.22;;;11.50;99.90;;;;;;5001624;28;20116;-77
2023/02/17 10:32:29;;;;;;;13.32;6.38;;;11.50;99.90;;;;;;5012705;28;20046;-77
2023/02/17 10:35:01;;;;;;;9.70;5.00;;;11.50;99.90;;;;;;5014272;28;20061;-77
2023/02/17 10:37:47;;;;;;;11.65;5.70;;;11.60;99.90;;;;;;5013460;28;20053;-77
2023/02/17 10:40:21;;;;;;;10.68;5.18;;;11.60;99.90;;;;;;5012274;28;20046;-77
2023/02/17 10:42:51;;;;;;;13.18;5.22;;;11.60;99.90;;;;;;5013643;28;20050;-77
2023/02/17 10:45:33;;;;;;;17.80;5.75;;;11.60;99.90;;;;;;5006396;28;20425;-77
2023/02/17 10:48:21;;;;;;;10.10;4.72;;;11.60;99.90;;;;;;5011936;28;20109;-77
2023/02/17 10:50:48;;;;;;;10.43;4.35;;;11.60;99.90;;;;;;5011667;28;20057;-77
2023/02/17 10:53:24;;;;;;;6.75;4.43;;;11.60;99.90;;;;;;5007935;28;20046;-77
2023/02/17 10:56:01;;;;;;;8.32;4.88;;;11.70;99.90;;;;;;4999710;28;20081;-76
2023/02/17 10:58:35;;;;;;;14.93;5.20;;;11.70;99.90;;;;;;4992447;28;20056;-77
2023/02/17 11:01:05;;;;;;;7.68;4.72;;;11.70;99.90;;;;;;5007559;28;20416;-76
2023/02/17 11:03:33;;;;;;;11.00;4.47;;;11.80;99.90;;;;;;5003537;28;20053;-77
2023/02/17 11:06:03;;;;;;;8.60;4.63;;;11.80;99.90;;;;;;4991424;28;20058;-77
2023/02/17 11:08:32;;;;;;;10.45;4.13;;;11.80;99.90;;;;;;5006330;28;20130;-76
2023/02/17 11:11:06;;;;;;;11.35;4.05;;;11.90;99.90;;;;;;5027030;22;20611;-80
2023/02/17 11:13:41;;;;;;;11.10;3.85;;;12.00;99.90;;;;;;5056561;28;20055;-81
2023/02/17 11:16:28;;;;;;;9.88;3.50;;;12.00;99.90;;;;;;5052432;28;20232;-81
2023/02/17 11:18:55;;;;;;;7.03;3.50;;;12.10;99.90;;;;;;5048464;28;20054;-81
2023/02/17 11:21:22;;;;;;;7.47;3.63;;;12.10;99.90;;;;;;5054517;28;20127;-81
2023/02/17 11:23:54;;;;;;;8.77;3.40;;;12.10;99.90;;;;;;5034819;28;20054;-82
2023/02/17 11:26:24;;;;;;;7.82;3.38;;;12.20;99.90;;;;;;5014138;28;20050;-81
2023/02/17 11:28:51;;;;;;;6.55;3.53;;;12.30;99.90;;;;;;5031207;28;20128;-81
2023/02/17 11:31:29;;;;;;;7.75;3.08;;;12.30;99.90;;;;;;5021787;28;20038;-80
2023/02/17 11:33:56;;;;;;;6.90;3.42;;;12.40;99.90;;;;;;5032206;28;20694;-81
2023/02/17 11:36:28;;;;;;;7.28;3.20;;;12.40;99.90;;;;;;5012560;28;20129;-81
2023/02/17 11:38:55;;;;;;;8.32;3.55;;;12.40;99.90;;;;;;5022271;28;20080;-81
2023/02/17 11:41:22;;;;;;;10.20;3.35;;;12.50;99.90;;;;;;5016405;28;20081;-81
2023/02/17 11:43:59;;;;;;;5.38;3.10;;;12.60;99.90;;;;;;5016611;28;20045;-81
2023/02/17 11:46:35;;;;;;;8.65;3.30;;;12.70;99.90;;;;;;5024135;28;20133;-81
2023/02/17 11:49:38;;;;;;;6.68;2.92;;;12.80;99.90;;;;;;5032621;28;20050;-81
2023/02/17 11:52:14;;;;;;;8.02;3.20;;;12.90;99.90;;;;;;5026060;28;20043;-81
2023/02/17 11:55:15;;;;;;;8.77;3.83;;;13.00;99.90;;;;;;5027828;28;20060;-82
2023/02/17 11:57:48;;;;;;;5.65;3.58;;;13.00;99.90;;;;;;5022680;28;20050;-80
2023/02/17 12:00:36;;;;;;;8.30;3.55;;;13.00;99.90;;;;;;5022361;28;20121;-81
2023/02/17 12:03:15;;;;;;;6.25;3.28;;;13.10;99.90;;;;;;5023245;28;20527;-80
2023/02/17 12:05:50;;;;;;;7.25;3.25;;;13.10;99.90;;;;;;5024338;28;20092;-81
2023/02/17 12:08:47;;;;;;;7.70;3.22;;;13.10;99.90;;;;;;5031786;28;20046;-79
2023/02/17 12:11:36;;;;;;;8.85;3.22;;;13.10;99.90;;;;;;5014438;28;20041;-81
2023/02/17 12:14:21;;;;;;;8.10;3.25;;;13.20;99.90;;;;;;5035539;28;20048;-81
2023/02/17 12:16:58;;;;;;;7.00;3.00;;;13.20;99.90;;;;;;5017665;28;20053;-82
2023/02/17 12:19:56;;;;;;;8.45;3.85;;;13.20;99.90;;;;;;5026349;28;20084;-82
2023/02/17 12:22:45;;;;;;;6.72;3.88;;;13.20;99.90;;;;;;5023033;28;20050;-82
2023/02/17 12:25:25;;;;;;;6.93;4.20;;;13.20;99.90;;;;;;5016994;28;20050;-81
2023/02/17 12:28:00;;;;;;;10.98;3.72;;;13.20;99.90;;;;;;5016012;28;20069;-82
2023/02/17 12:30:55;;;;;;;5.13;3.38;;;13.20;99.90;;;;;;5025833;28;20121;-82
2023/02/17 12:33:43;;;;;;;8.10;4.18;;;13.20;99.90;;;;;;5028284;28;20046;-82
2023/02/17 12:36:14;;;;;;;10.25;4.38;;;13.20;99.90;;;;;;5013473;28;20060;-81
2023/02/17 12:38:52;;;;;;;9.48;3.95;;;13.30;99.90;;;;;;5014366;28;20068;-82
2023/02/17 12:41:29;;;;;;;13.85;3.90;;;13.30;99.90;;;;;;5016898;28;20080;-82
2023/02/17 12:44:05;;;;;;;7.95;4.00;;;13.40;99.90;;;;;;5022775;28;20047;-82
2023/02/17 12:46:42;;;;;;;6.53;3.47;;;13.40;99.90;;;;;;5025469;28;20412;-82
2023/02/17 12:49:14;;;;;;;11.52;4.57;;;13.40;99.90;;;;;;5022040;28;20026;-81
2023/02/17 12:51:52;;;;;;;10.23;3.83;;;13.40;99.90;;;;;;5032903;28;20121;-82
2023/02/17 12:54:42;;;;;;;6.75;3.85;;;13.50;99.90;;;;;;5020539;28;20049;-82
2023/02/17 12:57:08;;;;;;;;;;;13.50;99.90;;;;;;5029870;28;20053;-82
2023/02/17 12:59:38;;;;;;;10.50;3.97;;;13.50;99.90;;;;;;5027593;28;20403;-82
2023/02/17 13:02:22;;;;;;;9.65;3.78;;;13.50;99.90;;;;;;5020135;28;20046;-82
2023/02/17 13:04:52;;;;;;;7.25;3.95;;;13.50;99.90;;;;;;5034171;28;20566;-82
2023/02/17 13:07:48;;;;;;;12.02;4.50;;;13.60;99.90;;;;;;5019793;28;20042;-82
2023/02/17 13:10:35;;;;;;;10.48;4.75;;;13.60;99.90;;;;;;5024788;28;20128;-81